AleStat.com

Change in ranking / Ranking

On in

show additional options hide additional options
Show chart Hide chart
Website Local position 2021-02-23 Global position 2021-02-23 AleStat Rank
pocrowpush.com  Show on alexa pocrowpush.com  Redirect to pocrowpush.com 29 587 / +120221 149 808 of day 2021-02-22 63 932 / +175961 239 893 of day 2021-02-22 427
partypoker.fr  Show on alexa partypoker.fr  Redirect to partypoker.fr Jouez au poker en ligne : Texas Hold'em, tournois et plus encore sur PartyPoker.com - bonus de bienvenue de 500 $ 465 / +645 1 110 of day 2021-02-22 30 425 / +166437 196 862 of day 2021-02-22 427
designsupply-web.com  Show on alexa designsupply-web.com  Redirect to designsupply-web.com 8 377 / +991623 1 000 000 of day 2021-02-22 23 108 / +976892 1 000 000 of day 2021-02-22 427
conjur.com.br  Show on alexa conjur.com.br  Redirect to conjur.com.br 210 / +330 540 of day 2021-02-22 19 408 / +164693 184 101 of day 2021-02-22 427
tubous.com  Show on alexa tubous.com  Redirect to tubous.com 4 873 / +133997 138 870 of day 2021-02-22 15 569 / +209396 224 965 of day 2021-02-22 427
khc.edu.tw  Show on alexa khc.edu.tw  Redirect to khc.edu.tw 25 059 / +105651 130 710 of day 2021-02-22 55 184 / +159187 214 371 of day 2021-02-22 426
ijiandao.com  Show on alexa ijiandao.com  Redirect to ijiandao.com 284 / +185 469 of day 2021-02-22 3 137 / +2574 5 711 of day 2021-02-22 426
eltrecetv.com.ar  Show on alexa eltrecetv.com.ar  Redirect to eltrecetv.com.ar El Trece 171 / +252 423 of day 2021-02-22 46 128 / +198609 244 737 of day 2021-02-22 425
bvb.de  Show on alexa bvb.de  Redirect to bvb.de Borussia Dortmund 715 / +789 1 504 of day 2021-02-22 42 281 / +296364 338 645 of day 2021-02-22 425
falconstudios.com  Show on alexa falconstudios.com  Redirect to falconstudios.com 4 781 / +995219 1 000 000 of day 2021-02-22 25 646 / +974354 1 000 000 of day 2021-02-22 425
fujielectric.co.jp  Show on alexa fujielectric.co.jp  Redirect to fujielectric.co.jp 616 / +455 1 071 of day 2021-02-22 20 592 / +18900 39 492 of day 2021-02-22 425
educacion.gob.es  Show on alexa educacion.gob.es  Redirect to educacion.gob.es 292 / +198 490 of day 2021-02-22 25 163 / +34172 59 335 of day 2021-02-22 424
d20srd.org  Show on alexa d20srd.org  Redirect to d20srd.org The Hypertext d20 SRD (v3.5 d20 System Reference Document) :: d20srd.org 5 737 / +3846 9 583 of day 2021-02-22 31 997 / +26127 58 124 of day 2021-02-22 423
onepiece-tube.com  Show on alexa onepiece-tube.com  Redirect to onepiece-tube.com OnePiece-Tube 135 / +424 559 of day 2021-02-22 7 942 / +22657 30 599 of day 2021-02-22 423
selcuksportshd67.live  Show on alexa selcuksportshd67.live  Redirect to selcuksportshd67.live 626 / +300 926 of day 2021-02-22 3 161 / +979 4 140 of day 2021-02-22 423
xvideo.mx  Show on alexa xvideo.mx  Redirect to xvideo.mx 47 568 / +1492 49 060 of day 2021-02-22 95 465 / +3396 98 861 of day 2021-02-22 422
neondistrict.io  Show on alexa neondistrict.io  Redirect to neondistrict.io 26 576 / +56615 83 191 of day 2021-02-22 57 970 / +90996 148 966 of day 2021-02-22 422
coin-hero.de  Show on alexa coin-hero.de  Redirect to coin-hero.de 13 004 / +258407 271 411 of day 2021-02-22 32 456 / +367099 399 555 of day 2021-02-22 422
inspirationwear.com  Show on alexa inspirationwear.com  Redirect to inspirationwear.com 10 228 / +11355 21 583 of day 2021-02-22 26 841 / +21905 48 746 of day 2021-02-22 422
jeftinije.hr  Show on alexa jeftinije.hr  Redirect to jeftinije.hr Plati manje | Jeftinije.hr - Usporedite cijene, savjete i potražite on-line trgovine 22 / +56 78 of day 2021-02-22 26 108 / +184851 210 959 of day 2021-02-22 422
streamcompletgratuit.fr  Show on alexa streamcompletgratuit.fr  Redirect to streamcompletgratuit.fr 5 017 / +24472 29 489 of day 2021-02-22 15 923 / +49215 65 138 of day 2021-02-22 422
nugnes1920.com  Show on alexa nugnes1920.com  Redirect to nugnes1920.com 11 785 / +988215 1 000 000 of day 2021-02-22 29 926 / +970074 1 000 000 of day 2021-02-22 421
qataronlinedirectory.com  Show on alexa qataronlinedirectory.com  Redirect to qataronlinedirectory.com Doha Qatar Business Directory and commercial yellow pages Directory, Qatar Online Directory | QOD 26 / +5 31 of day 2021-02-22 27 306 / +30585 57 891 of day 2021-02-22 421
ui.cn  Show on alexa ui.cn  Redirect to ui.cn 4 138 / +995862 1 000 000 of day 2021-02-22 13 671 / +986329 1 000 000 of day 2021-02-22 421
freeporno.xxx  Show on alexa freeporno.xxx  Redirect to freeporno.xxx 3 774 / +77717 81 491 of day 2021-02-22 12 752 / +133865 146 617 of day 2021-02-22 421
ysasecure.com  Show on alexa ysasecure.com  Redirect to ysasecure.com 585 / +999415 1 000 000 of day 2021-02-22 78 053 / +921947 1 000 000 of day 2021-02-22 420
sps186.org  Show on alexa sps186.org  Redirect to sps186.org Springfield Public Schools - Home 11 321 / +988679 1 000 000 of day 2021-02-22 68 675 / +931325 1 000 000 of day 2021-02-22 420
mc-web.jp  Show on alexa mc-web.jp  Redirect to mc-web.jp 6 939 / +4796 11 735 of day 2021-02-22 20 158 / +9845 30 003 of day 2021-02-22 420
midlandusa.com  Show on alexa midlandusa.com  Redirect to midlandusa.com 30 648 / +969352 1 000 000 of day 2021-02-22 66 001 / +933999 1 000 000 of day 2021-02-22 419
benihana.com  Show on alexa benihana.com  Redirect to benihana.com Home | Benihana 8 851 / +2101 10 952 of day 2021-02-22 54 612 / +11501 66 113 of day 2021-02-22 419
apkhome.net  Show on alexa apkhome.net  Redirect to apkhome.net 22 460 / +14711 37 171 of day 2021-02-22 50 306 / +29072 79 378 of day 2021-02-22 419
muratordom.pl  Show on alexa muratordom.pl  Redirect to muratordom.pl Budowa domu, instalacje, wnętrza, fachowe porady - Muratordom.pl 79 / +1 80 of day 2021-02-22 14 877 / +1429 16 306 of day 2021-02-22 419
firesbox.com  Show on alexa firesbox.com  Redirect to firesbox.com 24 842 / +975158 1 000 000 of day 2021-02-22 54 741 / +945259 1 000 000 of day 2021-02-22 418
mitsubishielectric.co.jp  Show on alexa mitsubishielectric.co.jp  Redirect to mitsubishielectric.co.jp 三菱電機 Mitsubishi Electric 419 / +78 497 of day 2021-02-22 12 721 / +1679 14 400 of day 2021-02-22 418
nullrefsuites.com  Show on alexa nullrefsuites.com  Redirect to nullrefsuites.com 49 376 / +950624 1 000 000 of day 2021-02-22 97 961 / +902039 1 000 000 of day 2021-02-22 417
nlt-media.com  Show on alexa nlt-media.com  Redirect to nlt-media.com 7 595 / +229521 237 116 of day 2021-02-22 21 474 / +333357 354 831 of day 2021-02-22 417
sexchatster.com  Show on alexa sexchatster.com  Redirect to sexchatster.com 36 486 / +91249 127 735 of day 2021-02-22 76 828 / +133546 210 374 of day 2021-02-22 416
wgxtreme.com  Show on alexa wgxtreme.com  Redirect to wgxtreme.com 36 080 / +963920 1 000 000 of day 2021-02-22 76 075 / +923925 1 000 000 of day 2021-02-22 416
camposha.info  Show on alexa camposha.info  Redirect to camposha.info 29 951 / +115004 144 955 of day 2021-02-22 64 669 / +168975 233 644 of day 2021-02-22 416
banksalad.com  Show on alexa banksalad.com  Redirect to banksalad.com 22 738 / +977262 1 000 000 of day 2021-02-22 50 950 / +949050 1 000 000 of day 2021-02-22 416
wezhan.cn  Show on alexa wezhan.cn  Redirect to wezhan.cn 2 722 / +997278 1 000 000 of day 2021-02-22 9 868 / +990132 1 000 000 of day 2021-02-22 416
keltecweapons.com  Show on alexa keltecweapons.com  Redirect to keltecweapons.com Kel Tec CNC 13 262 / +986738 1 000 000 of day 2021-02-22 81 977 / +918023 1 000 000 of day 2021-02-22 415
thehouseplanshop.com  Show on alexa thehouseplanshop.com  Redirect to thehouseplanshop.com 34 290 / +87834 122 124 of day 2021-02-22 72 954 / +129772 202 726 of day 2021-02-22 415
sweetwildoranges.tumblr.com  Show on alexa sweetwildoranges.tumblr.com  Redirect to sweetwildoranges.tumblr.com 11 103 / +14189 25 292 of day 2021-02-22 67 869 / +133985 201 854 of day 2021-02-22 415
powerofvitality.com  Show on alexa powerofvitality.com  Redirect to powerofvitality.com Power of Vitality 10 566 / +7338 17 904 of day 2021-02-22 64 833 / +55930 120 763 of day 2021-02-22 415
ditiezu.com  Show on alexa ditiezu.com  Redirect to ditiezu.com 555 / +999445 1 000 000 of day 2021-02-22 8 458 / +991542 1 000 000 of day 2021-02-22 415
tarifasmasmovil.net  Show on alexa tarifasmasmovil.net  Redirect to tarifasmasmovil.net 759 / +179 938 of day 2021-02-22 92 122 / +34038 126 160 of day 2021-02-22 413
microadia.net  Show on alexa microadia.net  Redirect to microadia.net 39 227 / +98650 137 877 of day 2021-02-22 81 418 / +142342 223 760 of day 2021-02-22 413
bitreveal.com  Show on alexa bitreveal.com  Redirect to bitreveal.com 28 210 / +58895 87 105 of day 2021-02-22 61 283 / +93351 154 634 of day 2021-02-22 413
aden777.net  Show on alexa aden777.net  Redirect to aden777.net 27 419 / +106242 133 661 of day 2021-02-22 59 712 / +158674 218 386 of day 2021-02-22 413
ilifeup.ru  Show on alexa ilifeup.ru  Redirect to ilifeup.ru 17 350 / +235625 252 975 of day 2021-02-22 41 041 / +334508 375 549 of day 2021-02-22 413
newsphere.jp  Show on alexa newsphere.jp  Redirect to newsphere.jp NewSphere(ニュースフィア) | News(海外のニュース、日本のニュース) + Sphere(言論空間) 618 / +999382 1 000 000 of day 2021-02-22 20 601 / +979399 1 000 000 of day 2021-02-22 413
paranaportal.uol.com.br  Show on alexa paranaportal.uol.com.br  Redirect to paranaportal.uol.com.br 6 672 / +993328 1 000 000 of day 2021-02-22 19 519 / +980481 1 000 000 of day 2021-02-22 413
jetztkonvertieren.com  Show on alexa jetztkonvertieren.com  Redirect to jetztkonvertieren.com 5 110 / +6953 12 063 of day 2021-02-22 16 164 / +14342 30 506 of day 2021-02-22 413
kyx.world  Show on alexa kyx.world  Redirect to kyx.world 39 185 / +960815 1 000 000 of day 2021-02-22 81 344 / +918656 1 000 000 of day 2021-02-22 412
uump4.net  Show on alexa uump4.net  Redirect to uump4.net 5 882 / +994118 1 000 000 of day 2021-02-22 17 937 / +982063 1 000 000 of day 2021-02-22 412
betterexplained.com  Show on alexa betterexplained.com  Redirect to betterexplained.com BetterExplained 959 / +10305 11 264 of day 2021-02-22 16 427 / +264754 281 181 of day 2021-02-22 412
elangroupsector50gurgaon.com  Show on alexa elangroupsector50gurgaon.com  Redirect to elangroupsector50gurgaon.com 43 353 / +956647 1 000 000 of day 2021-02-22 88 467 / +911533 1 000 000 of day 2021-02-22 411
lingayatmatrimony.com  Show on alexa lingayatmatrimony.com  Redirect to lingayatmatrimony.com 33 949 / +103814 137 763 of day 2021-02-22 72 263 / +151361 223 624 of day 2021-02-22 411
ntou.edu.tw  Show on alexa ntou.edu.tw  Redirect to ntou.edu.tw 30 471 / +969529 1 000 000 of day 2021-02-22 65 724 / +934276 1 000 000 of day 2021-02-22 411
routledgetextbooks.com  Show on alexa routledgetextbooks.com  Redirect to routledgetextbooks.com 9 650 / +8275 17 925 of day 2021-02-22 59 363 / +61559 120 922 of day 2021-02-22 411
interoperabilitybridges.com  Show on alexa interoperabilitybridges.com  Redirect to interoperabilitybridges.com Interoperability Bridges and Labs Center 6 855 / +13570 20 425 of day 2021-02-22 39 643 / +107875 147 518 of day 2021-02-22 411
shemales-time.com  Show on alexa shemales-time.com  Redirect to shemales-time.com 14 637 / +220942 235 579 of day 2021-02-22 35 409 / +317419 352 828 of day 2021-02-22 411
senac.br  Show on alexa senac.br  Redirect to senac.br 242 / +999758 1 000 000 of day 2021-02-22 19 558 / +980442 1 000 000 of day 2021-02-22 411
elyonkoshop.com  Show on alexa elyonkoshop.com  Redirect to elyonkoshop.com 4 352 / +995648 1 000 000 of day 2021-02-22 14 192 / +985808 1 000 000 of day 2021-02-22 411
streambeats.com  Show on alexa streambeats.com  Redirect to streambeats.com 43 766 / +77431 121 197 of day 2021-02-22 89 224 / +112273 201 497 of day 2021-02-22 410
short-download.online  Show on alexa short-download.online  Redirect to short-download.online 39 293 / +960707 1 000 000 of day 2021-02-22 81 520 / +918480 1 000 000 of day 2021-02-22 410
astropro.ru  Show on alexa astropro.ru  Redirect to astropro.ru Главная. Видеолекции по астрологии, консультации. : AstroPro - профессиональная астрология. Обучение и консультации. 2 218 / +997782 1 000 000 of day 2021-02-22 75 237 / +924763 1 000 000 of day 2021-02-22 410
padpullpact.com  Show on alexa padpullpact.com  Redirect to padpullpact.com 27 410 / +972590 1 000 000 of day 2021-02-22 59 694 / +940306 1 000 000 of day 2021-02-22 410
innovation.co.jp  Show on alexa innovation.co.jp  Redirect to innovation.co.jp 13 927 / +986073 1 000 000 of day 2021-02-22 34 029 / +965971 1 000 000 of day 2021-02-22 410
e-aidem.com  Show on alexa e-aidem.com  Redirect to e-aidem.com 439 / +999561 1 000 000 of day 2021-02-22 13 498 / +986502 1 000 000 of day 2021-02-22 410
khaleej-trend.online  Show on alexa khaleej-trend.online  Redirect to khaleej-trend.online 10 796 / +122363 133 159 of day 2021-02-22 27 967 / +189761 217 728 of day 2021-02-22 409
smtech.go.kr  Show on alexa smtech.go.kr  Redirect to smtech.go.kr 중소기업청 기술개발사업 종합관리시스템 149 / +999851 1 000 000 of day 2021-02-22 26 255 / +973745 1 000 000 of day 2021-02-22 409
stadetoulousain.fr  Show on alexa stadetoulousain.fr  Redirect to stadetoulousain.fr 5 016 / +994984 1 000 000 of day 2021-02-22 15 921 / +984079 1 000 000 of day 2021-02-22 408
aeon.com.hk  Show on alexa aeon.com.hk  Redirect to aeon.com.hk 26 / +19 45 of day 2021-02-22 7 911 / +2499 10 410 of day 2021-02-22 408
airmoldova.md  Show on alexa airmoldova.md  Redirect to airmoldova.md Air Moldova :: Bilete de avion din Chisinau online 3 / +18 21 of day 2021-02-22 7 063 / +361807 368 870 of day 2021-02-22 408
juleriaque.com.ar  Show on alexa juleriaque.com.ar  Redirect to juleriaque.com.ar 42 674 / +957326 1 000 000 of day 2021-02-22 87 411 / +912589 1 000 000 of day 2021-02-22 407
cutdl.xyz  Show on alexa cutdl.xyz  Redirect to cutdl.xyz 49 867 / +93801 143 668 of day 2021-02-22 98 617 / +133211 231 828 of day 2021-02-22 406
trck.cc  Show on alexa trck.cc  Redirect to trck.cc 46 782 / +76117 122 899 of day 2021-02-22 94 247 / +109495 203 742 of day 2021-02-22 406
rahneshan.ir  Show on alexa rahneshan.ir  Redirect to rahneshan.ir 7 993 / +361393 369 386 of day 2021-02-22 22 329 / +501074 523 403 of day 2021-02-22 406
voeazul.com.br  Show on alexa voeazul.com.br  Redirect to voeazul.com.br Azul - Linhas Aéreas Brasileiras. Você lá em cima. 57 / +78 135 of day 2021-02-22 5 641 / +6461 12 102 of day 2021-02-22 406
camz.com  Show on alexa camz.com  Redirect to camz.com camz | Welcome to Camz private amateur webcam girls live sex show webcams! 14 688 / +3996 18 684 of day 2021-02-22 93 345 / +36148 129 493 of day 2021-02-22 405
spareroom.co.uk  Show on alexa spareroom.co.uk  Redirect to spareroom.co.uk SPARE ROOM for flatshare, house share, flat share & rooms for rent 895 / +633 1 528 of day 2021-02-22 91 139 / +138370 229 509 of day 2021-02-22 405
thegraphicsfairy.com  Show on alexa thegraphicsfairy.com  Redirect to thegraphicsfairy.com The Graphics Fairy - Vintage Images, DIY & Crafty Projects 13 006 / +12394 25 400 of day 2021-02-22 80 559 / +122128 202 687 of day 2021-02-22 405
tiparents.com  Show on alexa tiparents.com  Redirect to tiparents.com 34 312 / +241995 276 307 of day 2021-02-22 72 992 / +332714 405 706 of day 2021-02-22 405
bm.pl  Show on alexa bm.pl  Redirect to bm.pl 100 / +999900 1 000 000 of day 2021-02-22 19 164 / +980836 1 000 000 of day 2021-02-22 405
slang.fm  Show on alexa slang.fm  Redirect to slang.fm 42 918 / +957082 1 000 000 of day 2021-02-22 87 746 / +912254 1 000 000 of day 2021-02-22 404
marketgid.info  Show on alexa marketgid.info  Redirect to marketgid.info 2 222 / +997778 1 000 000 of day 2021-02-22 75 812 / +924188 1 000 000 of day 2021-02-22 404
niceid.co.kr  Show on alexa niceid.co.kr  Redirect to niceid.co.kr 22 998 / +977002 1 000 000 of day 2021-02-22 51 274 / +948726 1 000 000 of day 2021-02-22 404
cembra.ch  Show on alexa cembra.ch  Redirect to cembra.ch 67 / +66 133 of day 2021-02-22 41 666 / +34466 76 132 of day 2021-02-22 404
sqa.org.uk  Show on alexa sqa.org.uk  Redirect to sqa.org.uk 97 / +257 354 of day 2021-02-22 8 012 / +20568 28 580 of day 2021-02-22 404
amp.dev  Show on alexa amp.dev  Redirect to amp.dev 1 238 / +998762 1 000 000 of day 2021-02-22 5 240 / +994760 1 000 000 of day 2021-02-22 404
chlloe.com  Show on alexa chlloe.com  Redirect to chlloe.com 44 519 / +955481 1 000 000 of day 2021-02-22 90 450 / +909550 1 000 000 of day 2021-02-22 403
thehealths.net  Show on alexa thehealths.net  Redirect to thehealths.net 13 400 / +16499 29 899 of day 2021-02-22 33 053 / +32910 65 963 of day 2021-02-22 403
embopress.org  Show on alexa embopress.org  Redirect to embopress.org 5 770 / +162220 167 990 of day 2021-02-22 17 763 / +246450 264 213 of day 2021-02-22 403
qvc.de  Show on alexa qvc.de  Redirect to qvc.de QVC.de 249 / +999751 1 000 000 of day 2021-02-22 15 533 / +984467 1 000 000 of day 2021-02-22 403
majikichi.com  Show on alexa majikichi.com  Redirect to majikichi.com マジキチ速報 511 / +745 1 256 of day 2021-02-22 15 518 / +27411 42 929 of day 2021-02-22 403
atpstar.com  Show on alexa atpstar.com  Redirect to atpstar.com 30 765 / +969235 1 000 000 of day 2021-02-22 66 204 / +933796 1 000 000 of day 2021-02-22 402
catchtheclick.com  Show on alexa catchtheclick.com  Redirect to catchtheclick.com 20 959 / +86495 107 454 of day 2021-02-22 47 057 / +135988 183 045 of day 2021-02-22 402
fish4.co.uk  Show on alexa fish4.co.uk  Redirect to fish4.co.uk fish4jobs | UK jobs and London jobs | Job adverts, finding staff 385 / +1670 2 055 of day 2021-02-22 30 143 / +356101 386 244 of day 2021-02-22 402
Ważne: nasze strony wykorzystują pliki cookies.

Bez tych plików serwis nie będzie działał poprawnie. W każdej chwili, w programie służącym do obsługi internetu, można zmienić ustawienia dotyczące cookies. Korzystanie z naszego serwisu bez zmiany ustawień oznacza, że będą one zapisane w pamięci urządzenia. Więcej informacji w Polityce prywatności.

Zapoznałem się z informacją